Monterey Peninsula Airport Monterey US
ICAO: KMRY
IATA: MRY
Category: Medium
Scheduled Services: Yes

Elevation: 257 ft
TransAlt. 18000 ft.

Airport Communications:
NORCAL APP/DEP:127.15
ATIS:119.25
CLNC DEL:135.45
CTAF:118.4
GND:121.9
TWR:118.4
UNICOM:122.95

KMRY Zoom In..

If you have problems with the map follow the link
https://www.worldairports.se/pages/airport.php?
ICAO=KMRY

Runways:

(A) RW 10L length 3513 ft width 60 ft
LOC 110.70 / hdg 98

(B) RW 10R length 7616 ft width 150 ft
ILS 110.70 / hdg 98

(C) RW 28L length 7616 ft width 150 ft
LOC 110.70 / hdg 278

(D) RW 28R length 3513 ft width 60 ft
LOC 110.70 / hdg 278

Location; KMRY
Day. 08 / Time. 04.54 Zulu
* Altimeter: 30.00
* Temperature: 16° c. 60.8°f.
* Wind from: 210° Speed 08 kn.
Dewpoint: 13° c.
Visibility: 10 Statute Miles.
Clouds: Scattered 1300 ft.
Clouds: Scattered 2000 ft.
Clouds: Broken 2400 ft.

KMRY 080454Z AUTO 21008KT 10SM SCT013 SCT020 BKN024 16/13 A3000 RMK AO2 RAB0356E46 SLP168 P0001 T01560133


Wind From 210°
Speed 08 kn.

 
 
jpsmedia worldairports.se 2019   terms of use